createdAt,value
2024-01-20T00:00:51.343Z,90.31
2024-01-20T00:01:51.298Z,89.68
2024-01-20T00:02:51.255Z,89.89
2024-01-20T00:03:51.220Z,89.78
2024-01-20T00:04:51.456Z,90.31
2024-01-20T00:05:51.137Z,89.68
2024-01-20T00:06:51.165Z,89.58
2024-01-20T00:07:51.082Z,89.58
2024-01-20T00:08:51.020Z,89.15
2024-01-20T00:09:52.259Z,89.58
2024-01-20T00:10:50.994Z,89.68
2024-01-20T00:11:50.889Z,89.68
2024-01-20T00:12:50.850Z,89.26
2024-01-20T00:13:50.855Z,89.89
2024-01-20T00:14:50.802Z,89.78
2024-01-20T00:15:50.721Z,90.20
2024-01-20T00:16:50.707Z,89.89
2024-01-20T00:17:50.761Z,90.31
2024-01-20T00:18:50.668Z,89.72
2024-01-20T00:19:53.237Z,89.72
2024-01-20T00:20:50.587Z,90.14
2024-01-20T00:21:50.481Z,90.31
2024-01-20T00:22:50.478Z,90.45
2024-01-20T00:23:50.404Z,90.31
2024-01-20T00:24:50.648Z,89.89
2024-01-20T00:25:50.368Z,90.34
2024-01-20T00:26:50.284Z,90.24
2024-01-20T00:27:50.244Z,90.45
2024-01-20T00:28:50.222Z,90.34
2024-01-20T00:29:50.433Z,90.34
2024-01-20T00:30:50.126Z,90.66
2024-01-20T00:31:50.155Z,89.78
2024-01-20T00:32:50.228Z,90.34
2024-01-20T00:33:50.084Z,90.34
2024-01-20T00:35:00.113Z,90.34
2024-01-20T00:35:50.053Z,90.24
2024-01-20T00:36:49.892Z,90.14
2024-01-20T00:37:49.877Z,90.24
2024-01-20T00:38:49.810Z,90.45
2024-01-20T00:39:50.051Z,90.77
2024-01-20T00:40:49.741Z,90.45
2024-01-20T00:41:49.687Z,90.39
2024-01-20T00:42:49.650Z,90.45
2024-01-20T00:43:49.617Z,91.28
2024-01-20T00:44:49.833Z,91.02
2024-01-20T00:45:49.555Z,90.97
2024-01-20T00:46:49.509Z,90.87
2024-01-20T00:47:49.493Z,91.18
2024-01-20T00:48:49.558Z,90.87
2024-01-20T00:49:49.684Z,91.39
2024-01-20T00:50:49.327Z,90.97
2024-01-20T00:51:49.285Z,91.08
2024-01-20T00:52:49.271Z,91.08
2024-01-20T00:53:49.248Z,90.97
2024-01-20T00:54:49.165Z,90.97
2024-01-20T00:55:49.166Z,91.08
2024-01-20T00:56:49.086Z,90.87
2024-01-20T00:57:49.065Z,90.97
2024-01-20T00:58:49.034Z,90.87
2024-01-20T00:59:49.251Z,90.97
2024-01-20T01:00:48.975Z,90.97
2024-01-20T01:01:48.907Z,90.91
2024-01-20T01:02:48.967Z,90.97
2024-01-20T01:03:48.875Z,91.02
2024-01-20T01:04:49.133Z,91.22
2024-01-20T01:05:48.770Z,91.22
2024-01-20T01:06:48.693Z,91.18
2024-01-20T01:07:48.672Z,90.97
2024-01-20T01:08:48.599Z,91.12
2024-01-20T01:09:48.845Z,91.43
2024-01-20T01:10:48.554Z,91.18
2024-01-20T01:11:48.487Z,90.91
2024-01-20T01:12:48.452Z,91.02
2024-01-20T01:13:48.425Z,91.12
2024-01-20T01:14:48.639Z,90.39
2024-01-20T01:15:48.324Z,90.91
2024-01-20T01:16:48.308Z,91.02
2024-01-20T01:17:48.323Z,90.91
2024-01-20T01:18:48.426Z,91.02
2024-01-20T01:19:48.455Z,90.91
2024-01-20T01:20:48.123Z,91.02
2024-01-20T01:21:48.082Z,90.91
2024-01-20T01:22:48.065Z,91.12
2024-01-20T01:23:48.028Z,90.91
2024-01-20T01:24:48.235Z,90.81
2024-01-20T01:25:47.940Z,91.02
2024-01-20T01:26:47.944Z,90.91
2024-01-20T01:27:47.841Z,91.02
2024-01-20T01:28:47.825Z,91.33
2024-01-20T01:29:48.055Z,91.43
2024-01-20T01:30:47.720Z,91.43
2024-01-20T01:31:47.706Z,91.43
2024-01-20T01:32:47.651Z,91.64
2024-01-20T01:33:47.884Z,91.12
2024-01-20T01:34:47.625Z,91.33
2024-01-20T01:35:47.531Z,91.12
2024-01-20T01:36:47.483Z,90.91
2024-01-20T01:37:47.452Z,90.81
2024-01-20T01:38:47.429Z,90.91
2024-01-20T01:39:47.355Z,90.59
2024-01-20T01:40:47.328Z,90.87
2024-01-20T01:41:47.270Z,90.91
2024-01-20T01:42:47.236Z,91.22
2024-01-20T01:43:47.492Z,90.39
2024-01-20T01:44:47.157Z,90.81
2024-01-20T01:45:47.109Z,91.75
2024-01-20T01:46:47.102Z,91.75
2024-01-20T01:47:47.084Z,91.85
2024-01-20T01:48:47.304Z,91.96
2024-01-20T01:49:47.041Z,91.85
2024-01-20T01:50:46.974Z,91.71
2024-01-20T01:51:46.918Z,91.64
2024-01-20T01:52:46.832Z,92.23
2024-01-20T01:53:46.811Z,91.71
2024-01-20T01:54:46.761Z,91.60
2024-01-20T01:55:46.706Z,91.50
2024-01-20T01:56:46.671Z,91.91
2024-01-20T01:57:46.623Z,91.91
2024-01-20T01:58:46.884Z,92.13
2024-01-20T01:59:46.559Z,91.87
2024-01-20T02:00:54.245Z,91.77
2024-01-20T02:01:46.468Z,92.29
2024-01-20T02:02:46.459Z,91.77
2024-01-20T02:03:46.856Z,91.77
2024-01-20T02:04:46.381Z,91.56
2024-01-20T02:05:46.299Z,91.94
2024-01-20T02:06:46.322Z,91.52
2024-01-20T02:07:46.497Z,91.41
2024-01-20T02:08:46.182Z,91.20
2024-01-20T02:09:46.141Z,91.00
2024-01-20T02:10:46.103Z,90.78
2024-01-20T02:11:46.063Z,91.72
2024-01-20T02:12:46.025Z,92.25
2024-01-20T02:13:46.261Z,91.56
2024-01-20T02:14:45.945Z,91.20
2024-01-20T02:15:45.914Z,90.78
2024-01-20T02:16:45.865Z,91.00
2024-01-20T02:17:45.842Z,90.75
2024-01-20T02:18:46.090Z,90.78
2024-01-20T02:19:45.773Z,90.89
2024-01-20T02:20:45.704Z,90.89
2024-01-20T02:21:45.669Z,90.47
2024-01-20T02:22:45.621Z,90.47
2024-01-20T02:23:45.871Z,91.25
2024-01-20T02:24:45.540Z,90.89
2024-01-20T02:25:45.498Z,91.46
2024-01-20T02:26:45.460Z,90.72
2024-01-20T02:27:45.493Z,90.68
2024-01-20T02:28:45.664Z,90.78
2024-01-20T02:29:45.337Z,90.78
2024-01-20T02:30:45.313Z,90.78
2024-01-20T02:31:45.257Z,90.89
2024-01-20T02:32:45.681Z,90.62
2024-01-20T02:33:45.272Z,91.14
2024-01-20T02:34:45.151Z,91.00
2024-01-20T02:35:45.107Z,90.78
2024-01-20T02:36:45.063Z,90.78
2024-01-20T02:37:45.290Z,90.89
2024-01-20T02:38:44.976Z,90.89
2024-01-20T02:39:44.941Z,90.89
2024-01-20T02:40:44.902Z,91.00
2024-01-20T02:41:44.862Z,91.00
2024-01-20T02:42:45.101Z,91.03
2024-01-20T02:43:44.781Z,91.72
2024-01-20T02:44:44.756Z,91.20
2024-01-20T02:45:44.705Z,90.68
2024-01-20T02:46:44.669Z,90.68
2024-01-20T02:47:44.957Z,90.58
2024-01-20T02:48:44.707Z,90.47
2024-01-20T02:49:44.668Z,90.78
2024-01-20T02:50:44.498Z,90.52
2024-01-20T02:51:44.490Z,90.89
2024-01-20T02:52:44.712Z,91.14
2024-01-20T02:53:44.387Z,91.20
2024-01-20T02:54:44.356Z,91.03
2024-01-20T02:55:44.307Z,91.00
2024-01-20T02:56:44.258Z,91.00
2024-01-20T02:57:44.218Z,90.68
2024-01-20T02:58:44.458Z,90.78
2024-01-20T02:59:44.140Z,91.00
2024-01-20T03:00:44.176Z,90.93
2024-01-20T03:01:44.075Z,91.00
2024-01-20T03:02:44.292Z,91.20
2024-01-20T03:03:44.013Z,91.41
2024-01-20T03:04:43.958Z,91.03
2024-01-20T03:05:43.928Z,91.46
2024-01-20T03:06:43.873Z,91.66
2024-01-20T03:07:44.112Z,91.03
2024-01-20T03:08:43.793Z,90.83
2024-01-20T03:09:43.754Z,90.89
2024-01-20T03:10:43.716Z,90.93
2024-01-20T03:11:43.761Z,91.03
2024-01-20T03:12:43.901Z,90.83
2024-01-20T03:13:43.627Z,90.93
2024-01-20T03:14:43.550Z,91.03
2024-01-20T03:15:43.529Z,91.03
2024-01-20T03:16:43.510Z,91.66
2024-01-20T03:17:43.525Z,91.98
2024-01-20T03:18:43.686Z,91.98
2024-01-20T03:19:43.394Z,91.77
2024-01-20T03:20:43.316Z,92.08
2024-01-20T03:21:43.274Z,92.50
2024-01-20T03:22:43.245Z,91.87
2024-01-20T03:23:43.480Z,91.77
2024-01-20T03:24:43.161Z,91.87
2024-01-20T03:25:43.109Z,92.08
2024-01-20T03:26:43.071Z,92.19
2024-01-20T03:27:43.053Z,92.60
2024-01-20T03:28:43.267Z,92.40
2024-01-20T03:29:42.961Z,92.60
2024-01-20T03:30:42.946Z,92.50
2024-01-20T03:31:42.880Z,92.60
2024-01-20T03:32:42.858Z,92.19
2024-01-20T03:33:42.908Z,93.02
2024-01-20T03:34:42.801Z,92.82
2024-01-20T03:35:42.729Z,92.71
2024-01-20T03:36:42.674Z,92.29
2024-01-20T03:37:51.279Z,91.98
2024-01-20T03:38:42.874Z,92.04
2024-01-20T03:39:42.576Z,92.04
2024-01-20T03:40:42.518Z,91.41
2024-01-20T03:41:42.487Z,91.72
2024-01-20T03:42:42.445Z,91.31
2024-01-20T03:43:42.416Z,91.00
2024-01-20T03:44:42.366Z,90.89
2024-01-20T03:45:42.315Z,90.26
2024-01-20T03:46:42.285Z,90.85
2024-01-20T03:47:42.271Z,90.75
2024-01-20T03:48:42.351Z,90.75
2024-01-20T03:49:42.333Z,90.12
2024-01-20T03:50:42.143Z,90.43
2024-01-20T03:51:42.080Z,90.33
2024-01-20T03:52:42.381Z,90.01
2024-01-20T03:53:42.293Z,90.39
2024-01-20T03:54:41.972Z,90.75
2024-01-20T03:55:41.916Z,90.33
2024-01-20T03:56:41.878Z,90.22
2024-01-20T03:57:41.836Z,89.91
2024-01-20T03:58:42.649Z,89.18
2024-01-20T03:59:41.765Z,89.70
2024-01-20T04:00:41.769Z,89.91
2024-01-20T04:01:41.787Z,89.70
2024-01-20T04:02:44.214Z,89.81
2024-01-20T04:03:41.742Z,89.81
2024-01-20T04:04:41.853Z,89.70
2024-01-20T04:05:41.522Z,89.28
2024-01-20T04:06:41.483Z,90.43
2024-01-20T04:07:41.459Z,89.59
2024-01-20T04:08:41.435Z,89.45
2024-01-20T04:09:41.366Z,89.59
2024-01-20T04:10:41.321Z,89.49
2024-01-20T04:11:41.282Z,89.28
2024-01-20T04:12:41.258Z,89.59
2024-01-20T04:13:41.476Z,89.70
2024-01-20T04:14:41.161Z,89.59
2024-01-20T04:15:41.125Z,89.59
2024-01-20T04:16:41.104Z,90.18
2024-01-20T04:17:41.081Z,89.28
2024-01-20T04:18:41.252Z,89.81
2024-01-20T04:19:41.770Z,89.76
2024-01-20T04:20:40.932Z,89.59
2024-01-20T04:21:40.908Z,89.59
2024-01-20T04:22:40.842Z,90.12
2024-01-20T04:23:40.836Z,90.28
2024-01-20T04:24:40.773Z,89.66
2024-01-20T04:25:40.732Z,89.59
2024-01-20T04:26:40.703Z,90.12
2024-01-20T04:27:40.653Z,90.01
2024-01-20T04:28:40.917Z,90.12
2024-01-20T04:29:40.627Z,89.56
2024-01-20T04:30:40.589Z,90.12
2024-01-20T04:31:40.494Z,90.12
2024-01-20T04:32:40.525Z,90.12
2024-01-20T04:33:40.846Z,90.12
2024-01-20T04:34:40.481Z,89.91
2024-01-20T04:35:40.338Z,90.12
2024-01-20T04:36:40.290Z,90.12
2024-01-20T04:37:40.258Z,90.22
2024-01-20T04:38:40.507Z,90.33
2024-01-20T04:39:42.612Z,90.12
2024-01-20T04:40:40.138Z,90.33
2024-01-20T04:41:40.110Z,90.53
2024-01-20T04:42:40.093Z,90.33
2024-01-20T04:43:40.046Z,90.12
2024-01-20T04:44:40.067Z,89.91
2024-01-20T04:45:40.061Z,90.33
2024-01-20T04:46:39.903Z,90.53
2024-01-20T04:47:39.877Z,90.53
2024-01-20T04:48:40.240Z,90.22
2024-01-20T04:49:39.825Z,90.22
2024-01-20T04:50:39.737Z,91.22
2024-01-20T04:51:39.722Z,90.60
2024-01-20T04:52:39.665Z,91.02
2024-01-20T04:53:39.890Z,90.81
2024-01-20T04:54:39.716Z,91.02
2024-01-20T04:55:39.547Z,90.95
2024-01-20T04:56:39.503Z,90.95
2024-01-20T04:57:39.483Z,91.22
2024-01-20T04:58:39.707Z,91.58
2024-01-20T04:59:39.381Z,91.47
2024-01-20T05:00:39.480Z,90.95
2024-01-20T05:01:40.783Z,91.37
2024-01-20T05:02:39.261Z,91.58
2024-01-20T05:03:39.385Z,91.79
2024-01-20T05:04:39.246Z,92.31
2024-01-20T05:05:39.187Z,91.79
2024-01-20T05:06:39.156Z,91.47
2024-01-20T05:07:39.072Z,92.25
2024-01-20T05:08:39.065Z,92.31
2024-01-20T05:09:39.020Z,91.79
2024-01-20T05:10:38.950Z,91.83
2024-01-20T05:11:38.905Z,91.72
2024-01-20T05:12:38.890Z,91.83
2024-01-20T05:13:38.860Z,91.94
2024-01-20T05:14:38.797Z,91.79
2024-01-20T05:15:38.760Z,91.83
2024-01-20T05:16:38.710Z,91.79
2024-01-20T05:17:38.798Z,92.00
2024-01-20T05:18:39.022Z,92.00
2024-01-20T05:19:38.726Z,92.00
2024-01-20T05:20:38.557Z,92.04
2024-01-20T05:21:38.539Z,92.04
2024-01-20T05:22:38.473Z,91.62
2024-01-20T05:23:38.721Z,91.72
2024-01-20T05:24:38.414Z,91.72
2024-01-20T05:25:38.354Z,91.79
2024-01-20T05:26:38.324Z,92.04
2024-01-20T05:27:38.512Z,92.04
2024-01-20T05:28:38.237Z,91.72
2024-01-20T05:29:38.479Z,91.52
2024-01-20T05:30:38.169Z,91.79
2024-01-20T05:31:38.122Z,91.83
2024-01-20T05:32:38.267Z,92.04
2024-01-20T05:33:38.166Z,92.35
2024-01-20T05:34:38.319Z,91.83
2024-01-20T05:35:37.960Z,92.04
2024-01-20T05:36:37.979Z,92.00
2024-01-20T05:37:37.875Z,92.25
2024-01-20T05:38:37.834Z,92.10
2024-01-20T05:39:37.818Z,92.21
2024-01-20T05:40:38.040Z,92.21
2024-01-20T05:41:37.720Z,92.21
2024-01-20T05:42:37.704Z,92.31
2024-01-20T05:43:37.641Z,92.21
2024-01-20T05:44:38.054Z,91.79
2024-01-20T05:45:37.586Z,91.79
2024-01-20T05:46:38.274Z,91.47
2024-01-20T05:47:37.474Z,91.69
2024-01-20T05:48:37.623Z,91.43
2024-01-20T05:49:37.540Z,91.69
2024-01-20T05:50:37.373Z,92.27
2024-01-20T05:51:37.366Z,91.96
2024-01-20T05:52:37.285Z,91.96
2024-01-20T05:53:37.257Z,92.16
2024-01-20T05:54:37.291Z,92.06
2024-01-20T05:55:37.173Z,91.96
2024-01-20T05:56:37.160Z,91.85
2024-01-20T05:57:37.199Z,92.27
2024-01-20T05:58:37.052Z,92.06
2024-01-20T05:59:37.294Z,92.12
2024-01-20T06:00:37.027Z,92.16
2024-01-20T06:01:36.954Z,92.12
2024-01-20T06:02:36.899Z,92.02
2024-01-20T06:03:36.922Z,92.16
2024-01-20T06:04:37.134Z,92.06
2024-01-20T06:05:36.777Z,92.58
2024-01-20T06:06:36.743Z,91.96
2024-01-20T06:07:36.698Z,92.16
2024-01-20T06:08:36.664Z,92.37
2024-01-20T06:09:36.946Z,92.54
2024-01-20T06:10:36.619Z,92.22
2024-01-20T06:11:36.569Z,91.81
2024-01-20T06:12:36.530Z,92.12
2024-01-20T06:13:36.461Z,92.33
2024-01-20T06:14:36.803Z,92.02
2024-01-20T06:15:36.396Z,92.16
2024-01-20T06:16:36.345Z,92.02
2024-01-20T06:17:36.382Z,92.12
2024-01-20T06:18:36.299Z,92.12
2024-01-20T06:19:36.512Z,91.91
2024-01-20T06:20:36.195Z,92.37
2024-01-20T06:21:36.255Z,92.58
2024-01-20T06:22:36.119Z,92.27
2024-01-20T06:23:36.092Z,92.37
2024-01-20T06:24:36.314Z,93.21
2024-01-20T06:25:35.999Z,93.10
2024-01-20T06:26:35.955Z,92.90
2024-01-20T06:27:35.923Z,92.90
2024-01-20T06:28:35.884Z,92.90
2024-01-20T06:29:36.111Z,93.25
2024-01-20T06:30:35.922Z,93.25
2024-01-20T06:31:35.754Z,93.25
2024-01-20T06:32:35.774Z,93.15
2024-01-20T06:33:35.768Z,93.15
2024-01-20T06:34:35.959Z,93.35
2024-01-20T06:35:35.594Z,93.57
2024-01-20T06:36:35.596Z,93.35
2024-01-20T06:37:35.514Z,93.50
2024-01-20T06:38:35.480Z,93.15
2024-01-20T06:39:35.767Z,93.19
2024-01-20T06:40:35.393Z,93.35
2024-01-20T06:41:35.365Z,93.19
2024-01-20T06:42:35.448Z,93.15
2024-01-20T06:43:35.281Z,93.57
2024-01-20T06:44:35.580Z,93.46
2024-01-20T06:45:35.331Z,93.35
2024-01-20T06:46:35.196Z,93.67
2024-01-20T06:47:35.886Z,93.77
2024-01-20T06:48:35.242Z,93.77
2024-01-20T06:49:35.464Z,93.88
2024-01-20T06:50:35.003Z,93.77
2024-01-20T06:51:35.042Z,93.57
2024-01-20T06:52:34.928Z,93.84
2024-01-20T06:53:34.884Z,93.46
2024-01-20T06:54:35.224Z,93.73
2024-01-20T06:55:34.811Z,93.27
2024-01-20T06:56:34.774Z,93.06
2024-01-20T06:57:34.794Z,93.27
2024-01-20T06:58:34.704Z,92.75
2024-01-20T06:59:34.954Z,92.85
2024-01-20T07:00:34.692Z,92.65
2024-01-20T07:01:34.564Z,92.54
2024-01-20T07:02:34.540Z,92.08
2024-01-20T07:03:34.596Z,92.40
2024-01-20T07:04:34.772Z,92.22
2024-01-20T07:05:34.451Z,91.77
2024-01-20T07:06:34.389Z,92.12
2024-01-20T07:07:34.326Z,91.77
2024-01-20T07:08:34.869Z,91.71
2024-01-20T07:09:34.542Z,91.87
2024-01-20T07:10:34.230Z,91.56
2024-01-20T07:11:34.186Z,91.56
2024-01-20T07:12:34.222Z,91.66
2024-01-20T07:13:34.093Z,91.66
2024-01-20T07:14:34.585Z,91.66
2024-01-20T07:15:34.134Z,91.77
2024-01-20T07:16:33.972Z,91.60
2024-01-20T07:17:34.048Z,91.66
2024-01-20T07:18:33.914Z,91.60
2024-01-20T07:19:34.197Z,91.71
2024-01-20T07:20:33.835Z,91.60
2024-01-20T07:21:33.783Z,91.60
2024-01-20T07:22:33.739Z,91.35
2024-01-20T07:23:33.709Z,91.60
2024-01-20T07:24:34.045Z,91.97
2024-01-20T07:25:33.633Z,92.18
2024-01-20T07:26:33.589Z,92.12
2024-01-20T07:27:33.615Z,92.22
2024-01-20T07:28:33.510Z,92.12
2024-01-20T07:29:33.746Z,91.81
2024-01-20T07:30:33.541Z,92.12
2024-01-20T07:31:33.419Z,92.33
2024-01-20T07:32:33.420Z,92.33
2024-01-20T07:33:33.403Z,91.91
2024-01-20T07:35:33.237Z,92.12
2024-01-20T07:36:33.347Z,92.02
2024-01-20T07:37:33.210Z,92.02
2024-01-20T07:38:33.114Z,91.81
2024-01-20T07:39:33.402Z,92.02
2024-01-20T07:40:33.034Z,92.02
2024-01-20T07:41:33.000Z,92.22
2024-01-20T07:42:33.047Z,92.02
2024-01-20T07:43:32.939Z,92.12
2024-01-20T07:44:35.043Z,92.22
2024-01-20T07:45:32.936Z,92.22
2024-01-20T07:46:32.801Z,92.75
2024-01-20T07:47:33.767Z,92.02
2024-01-20T07:48:33.120Z,92.12
2024-01-20T07:49:32.808Z,91.97
2024-01-20T07:50:32.658Z,91.71
2024-01-20T07:51:32.673Z,91.71
2024-01-20T07:52:32.568Z,91.81
2024-01-20T07:53:32.548Z,91.71
2024-01-20T07:54:32.817Z,92.08
2024-01-20T07:55:32.483Z,91.46
2024-01-20T07:56:33.245Z,91.46
2024-01-20T07:57:32.434Z,91.25
2024-01-20T07:58:32.609Z,91.14
2024-01-20T07:59:32.298Z,90.52
2024-01-20T08:00:32.275Z,90.83
2024-01-20T08:01:32.268Z,90.47
2024-01-20T08:02:32.180Z,90.58
2024-01-20T08:03:32.454Z,90.79
2024-01-20T08:04:32.126Z,90.58
2024-01-20T08:05:35.148Z,90.79
2024-01-20T08:06:32.095Z,90.37
2024-01-20T08:07:31.990Z,89.91
2024-01-20T08:08:32.219Z,90.01
2024-01-20T08:09:31.932Z,90.12
2024-01-20T08:10:31.878Z,89.81
2024-01-20T08:11:31.833Z,90.12
2024-01-20T08:12:31.867Z,89.66
2024-01-20T08:13:31.752Z,89.70
2024-01-20T08:14:31.998Z,88.93
2024-01-20T08:15:31.724Z,88.93
2024-01-20T08:16:31.636Z,89.45
2024-01-20T08:17:31.640Z,88.83
2024-01-20T08:18:31.634Z,89.10
2024-01-20T08:19:31.623Z,88.93
2024-01-20T08:20:31.478Z,89.00
2024-01-20T08:21:31.455Z,89.00
2024-01-20T08:22:31.401Z,88.27
2024-01-20T08:23:31.375Z,88.79
2024-01-20T08:24:31.662Z,88.48
2024-01-20T08:25:31.292Z,88.37
2024-01-20T08:26:31.262Z,88.37
2024-01-20T08:27:31.276Z,88.37
2024-01-20T08:28:31.168Z,88.17
2024-01-20T08:29:31.418Z,88.48
2024-01-20T08:30:33.836Z,88.17
2024-01-20T08:31:31.148Z,88.17
2024-01-20T08:32:31.095Z,87.92
2024-01-20T08:33:31.038Z,88.37
2024-01-20T08:34:31.219Z,87.81
2024-01-20T08:35:30.900Z,87.81
2024-01-20T08:36:30.929Z,88.17
2024-01-20T08:37:30.824Z,87.60
2024-01-20T08:38:30.784Z,87.92
2024-01-20T08:39:31.168Z,88.02
2024-01-20T08:40:30.707Z,88.12
2024-01-20T08:41:30.669Z,87.40
2024-01-20T08:42:30.694Z,88.12
2024-01-20T08:43:30.592Z,88.19
2024-01-20T08:44:30.825Z,87.56
2024-01-20T08:45:30.596Z,87.25
2024-01-20T08:46:30.479Z,86.11
2024-01-20T08:47:30.457Z,86.49
2024-01-20T08:48:30.455Z,86.44
2024-01-20T08:49:30.630Z,86.07
2024-01-20T08:50:30.322Z,85.93
2024-01-20T08:51:30.432Z,85.72
2024-01-20T08:52:30.262Z,85.61
2024-01-20T08:53:30.223Z,85.75
2024-01-20T08:54:30.481Z,86.03
2024-01-20T08:55:30.146Z,85.82
2024-01-20T08:56:30.408Z,85.41
2024-01-20T08:57:30.177Z,85.72
2024-01-20T08:58:30.026Z,85.82
2024-01-20T08:59:30.273Z,85.82
2024-01-20T09:00:30.054Z,85.72
2024-01-20T09:01:29.980Z,85.72
2024-01-20T09:02:29.914Z,85.82
2024-01-20T09:03:29.965Z,85.72
2024-01-20T09:04:30.078Z,85.82
2024-01-20T09:05:37.905Z,86.03
2024-01-20T09:06:29.939Z,86.24
2024-01-20T09:07:29.709Z,86.03
2024-01-20T09:08:29.644Z,85.93
2024-01-20T09:09:29.674Z,86.27
2024-01-20T09:10:29.579Z,87.01
2024-01-20T09:11:29.537Z,87.42
2024-01-20T09:12:29.577Z,86.80
2024-01-20T09:13:29.472Z,87.17
2024-01-20T09:14:29.695Z,87.11
2024-01-20T09:15:29.426Z,87.07
2024-01-20T09:16:29.347Z,87.01
2024-01-20T09:17:30.256Z,87.69
2024-01-20T09:18:29.742Z,87.32
2024-01-20T09:19:29.313Z,86.80
2024-01-20T09:20:29.352Z,87.52
2024-01-20T09:21:29.219Z,87.84
2024-01-20T09:22:29.114Z,87.38
2024-01-20T09:23:29.105Z,87.27
2024-01-20T09:24:29.047Z,86.07
2024-01-20T09:25:29.018Z,87.48
2024-01-20T09:26:28.979Z,88.15
2024-01-20T09:27:28.950Z,87.52
2024-01-20T09:28:28.882Z,87.11
2024-01-20T09:29:28.884Z,86.38
2024-01-20T09:30:28.803Z,87.21
2024-01-20T09:31:28.801Z,86.69
2024-01-20T09:32:28.774Z,86.76
2024-01-20T09:33:28.840Z,87.21
2024-01-20T09:34:29.033Z,86.96
2024-01-20T09:35:28.631Z,86.03
2024-01-20T09:36:28.597Z,86.13
2024-01-20T09:37:36.336Z,85.82
2024-01-20T09:38:28.497Z,86.24
2024-01-20T09:39:28.899Z,85.96
2024-01-20T09:40:28.439Z,85.72
2024-01-20T09:41:28.396Z,85.44
2024-01-20T09:42:28.418Z,85.44
2024-01-20T09:43:28.313Z,85.96
2024-01-20T09:44:28.552Z,85.86
2024-01-20T09:45:28.347Z,85.80
2024-01-20T09:46:28.197Z,85.55
2024-01-20T09:47:28.182Z,85.69
2024-01-20T09:48:28.284Z,85.80
2024-01-20T09:49:28.440Z,85.59
2024-01-20T09:50:28.051Z,86.00
2024-01-20T09:51:28.043Z,85.80
2024-01-20T09:52:27.971Z,86.15
2024-01-20T09:53:27.947Z,86.57
2024-01-20T09:54:28.206Z,87.19
2024-01-20T09:55:27.854Z,86.88
2024-01-20T09:56:27.821Z,87.43
2024-01-20T09:57:27.816Z,87.33
2024-01-20T09:58:27.744Z,87.65
2024-01-20T09:59:28.053Z,87.65
2024-01-20T10:00:27.707Z,87.23
2024-01-20T10:01:27.681Z,87.54
2024-01-20T10:02:27.589Z,87.85
2024-01-20T10:03:27.609Z,87.54
2024-01-20T10:04:27.601Z,87.33
2024-01-20T10:05:27.504Z,88.27
2024-01-20T10:06:27.486Z,87.65
2024-01-20T10:07:27.394Z,87.75
2024-01-20T10:08:27.362Z,87.43
2024-01-20T10:09:29.799Z,87.75
2024-01-20T10:10:27.283Z,87.43
2024-01-20T10:11:27.293Z,87.33
2024-01-20T10:12:27.305Z,87.65
2024-01-20T10:13:27.175Z,87.65
2024-01-20T10:14:27.408Z,87.54
2024-01-20T10:15:28.867Z,86.71
2024-01-20T10:16:27.050Z,87.43
2024-01-20T10:17:27.033Z,87.54
2024-01-20T10:18:27.014Z,86.71
2024-01-20T10:19:27.277Z,87.33
2024-01-20T10:20:26.900Z,87.54
2024-01-20T10:21:26.900Z,87.54
2024-01-20T10:22:26.820Z,87.54
2024-01-20T10:23:26.819Z,87.40
2024-01-20T10:24:26.766Z,87.02
2024-01-20T10:25:26.703Z,87.12
2024-01-20T10:26:26.665Z,87.19
2024-01-20T10:27:26.671Z,87.29
2024-01-20T10:28:26.873Z,86.50
2024-01-20T10:29:26.584Z,86.71
2024-01-20T10:30:26.553Z,87.23
2024-01-20T10:31:26.496Z,87.19
2024-01-20T10:32:26.491Z,87.65
2024-01-20T10:33:26.797Z,87.43
2024-01-20T10:34:26.445Z,87.43
2024-01-20T10:35:26.482Z,87.65
2024-01-20T10:36:26.331Z,87.43
2024-01-20T10:37:26.257Z,86.50
2024-01-20T10:38:26.573Z,87.08
2024-01-20T10:39:26.287Z,86.57
2024-01-20T10:40:26.147Z,86.46
2024-01-20T10:41:26.127Z,86.77
2024-01-20T10:42:26.090Z,86.46
2024-01-20T10:43:26.311Z,86.57
2024-01-20T10:44:26.014Z,86.21
2024-01-20T10:45:25.990Z,85.96
2024-01-20T10:46:25.922Z,85.96
2024-01-20T10:47:26.171Z,85.44
2024-01-20T10:48:25.946Z,85.93
2024-01-20T10:49:25.890Z,85.93
2024-01-20T10:50:25.774Z,84.58
2024-01-20T10:51:25.813Z,84.68
2024-01-20T10:52:26.014Z,84.37
2024-01-20T10:53:25.941Z,84.64
2024-01-20T10:54:25.662Z,84.47
2024-01-20T10:55:25.666Z,84.58
2024-01-20T10:56:25.546Z,85.10
2024-01-20T10:57:25.806Z,85.51
2024-01-20T10:58:25.564Z,85.82
2024-01-20T10:59:25.523Z,86.07
2024-01-20T11:00:25.473Z,85.61
2024-01-20T11:01:25.372Z,85.86
2024-01-20T11:02:25.602Z,85.44
2024-01-20T11:03:25.331Z,85.65
2024-01-20T11:04:25.274Z,86.07
2024-01-20T11:05:25.232Z,86.11
2024-01-20T11:06:25.425Z,86.21
2024-01-20T11:07:25.403Z,86.69
2024-01-20T11:08:25.151Z,87.04
2024-01-20T11:09:25.214Z,86.63
2024-01-20T11:10:25.040Z,86.63
2024-01-20T11:11:24.990Z,86.42
2024-01-20T11:12:25.241Z,86.42
2024-01-20T11:13:24.915Z,86.49
2024-01-20T11:14:24.882Z,86.38
2024-01-20T11:15:24.870Z,86.49
2024-01-20T11:16:24.811Z,86.73
2024-01-20T11:17:25.108Z,86.73
2024-01-20T11:18:24.949Z,86.80
2024-01-20T11:19:24.789Z,86.69
2024-01-20T11:20:24.707Z,86.83
2024-01-20T11:21:24.633Z,86.83
2024-01-20T11:22:24.872Z,86.63
2024-01-20T11:23:24.565Z,87.04
2024-01-20T11:24:24.538Z,86.42
2024-01-20T11:25:24.479Z,86.59
2024-01-20T11:26:24.429Z,86.42
2024-01-20T11:27:24.432Z,86.59
2024-01-20T11:28:24.640Z,86.17
2024-01-20T11:29:24.347Z,86.38
2024-01-20T11:30:24.818Z,86.69
2024-01-20T11:31:24.243Z,86.49
2024-01-20T11:32:24.232Z,86.07
2024-01-20T11:33:24.541Z,86.49
2024-01-20T11:34:24.232Z,86.69
2024-01-20T11:35:24.090Z,86.69
2024-01-20T11:36:24.082Z,86.49
2024-01-20T11:37:24.017Z,86.80
2024-01-20T11:38:24.272Z,86.49
2024-01-20T11:39:24.102Z,86.59
2024-01-20T11:40:23.901Z,86.49
2024-01-20T11:41:23.857Z,86.49
2024-01-20T11:42:23.870Z,86.49
2024-01-20T11:43:24.049Z,86.17
2024-01-20T11:44:23.745Z,86.49
2024-01-20T11:45:23.746Z,86.65
2024-01-20T11:46:23.719Z,86.49
2024-01-20T11:47:23.640Z,86.13
2024-01-20T11:48:23.740Z,86.07
2024-01-20T11:49:23.675Z,85.55
2024-01-20T11:50:23.515Z,85.41
2024-01-20T11:51:23.519Z,85.72
2024-01-20T11:52:23.439Z,85.82
2024-01-20T11:53:23.938Z,85.72
2024-01-20T11:54:23.380Z,85.61
2024-01-20T11:55:23.327Z,85.82
2024-01-20T11:56:23.288Z,85.72
2024-01-20T11:57:23.297Z,85.61
2024-01-20T11:58:23.673Z,85.51
2024-01-20T11:59:23.170Z,85.93
2024-01-20T12:00:23.204Z,85.82
2024-01-20T12:01:23.173Z,85.72
2024-01-20T12:02:23.063Z,85.72
2024-01-20T12:03:23.318Z,85.72
2024-01-20T12:04:23.028Z,85.82
2024-01-20T12:05:23.015Z,85.82
2024-01-20T12:06:23.009Z,85.93
2024-01-20T12:07:22.993Z,85.72
2024-01-20T12:08:23.009Z,85.72
2024-01-20T12:09:22.851Z,85.78
2024-01-20T12:10:22.762Z,85.51
2024-01-20T12:11:22.720Z,85.47
2024-01-20T12:12:22.764Z,85.26
2024-01-20T12:13:22.643Z,85.99
2024-01-20T12:14:22.610Z,85.36
2024-01-20T12:15:22.632Z,85.36
2024-01-20T12:16:22.552Z,85.36
2024-01-20T12:17:22.520Z,85.05
2024-01-20T12:18:22.543Z,85.26
2024-01-20T12:19:22.493Z,85.26
2024-01-20T12:20:22.384Z,85.05
2024-01-20T12:21:22.381Z,85.47
2024-01-20T12:22:23.142Z,85.47
2024-01-20T12:23:22.271Z,85.78
2024-01-20T12:24:22.269Z,85.05
2024-01-20T12:25:22.197Z,85.05
2024-01-20T12:26:22.156Z,85.05
2024-01-20T12:27:22.409Z,85.57
2024-01-20T12:28:22.090Z,84.53
2024-01-20T12:29:22.060Z,84.43
2024-01-20T12:30:22.039Z,83.91
2024-01-20T12:31:23.191Z,84.19
2024-01-20T12:32:22.213Z,84.53
2024-01-20T12:33:21.971Z,84.64
2024-01-20T12:34:21.942Z,84.60
2024-01-20T12:35:21.815Z,84.29
2024-01-20T12:36:21.809Z,84.33
2024-01-20T12:37:22.454Z,84.33
2024-01-20T12:38:21.706Z,84.29
2024-01-20T12:39:21.782Z,83.67
2024-01-20T12:40:21.626Z,83.67
2024-01-20T12:41:21.617Z,83.87
2024-01-20T12:42:21.844Z,84.22
2024-01-20T12:43:21.526Z,83.67
2024-01-20T12:44:21.477Z,83.91
2024-01-20T12:45:21.483Z,83.98
2024-01-20T12:46:21.410Z,83.87
2024-01-20T12:47:21.644Z,83.98
2024-01-20T12:48:21.383Z,84.43
2024-01-20T12:49:21.368Z,83.67
2024-01-20T12:50:21.261Z,83.87
2024-01-20T12:51:21.285Z,84.08
2024-01-20T12:52:21.447Z,84.39
2024-01-20T12:53:21.149Z,83.77